sensor_id;sensor_type;location;lat;lon;timestamp;P1;durP1;ratioP1;P2;durP2;ratioP2
1479;SDS011;732;51.698;4.886;2022-07-30T00:00:34;17.70;;;8.77;;
1479;SDS011;732;51.698;4.886;2022-07-30T00:03:03;15.60;;;8.77;;
1479;SDS011;732;51.698;4.886;2022-07-30T00:05:31;16.67;;;9.87;;
1479;SDS011;732;51.698;4.886;2022-07-30T00:08:00;20.10;;;9.40;;
1479;SDS011;732;51.698;4.886;2022-07-30T00:10:28;15.50;;;9.90;;
1479;SDS011;732;51.698;4.886;2022-07-30T00:12:57;16.03;;;10.00;;
1479;SDS011;732;51.698;4.886;2022-07-30T00:15:26;18.50;;;9.53;;
1479;SDS011;732;51.698;4.886;2022-07-30T00:17:55;15.30;;;9.77;;
1479;SDS011;732;51.698;4.886;2022-07-30T00:20:25;17.70;;;9.33;;
1479;SDS011;732;51.698;4.886;2022-07-30T00:22:54;21.20;;;9.90;;
1479;SDS011;732;51.698;4.886;2022-07-30T00:25:22;18.40;;;10.73;;
1479;SDS011;732;51.698;4.886;2022-07-30T00:27:51;17.93;;;9.40;;
1479;SDS011;732;51.698;4.886;2022-07-30T00:30:20;20.87;;;9.20;;
1479;SDS011;732;51.698;4.886;2022-07-30T00:32:50;17.10;;;9.10;;
1479;SDS011;732;51.698;4.886;2022-07-30T00:35:18;27.13;;;10.00;;
1479;SDS011;732;51.698;4.886;2022-07-30T00:37:47;15.47;;;8.53;;
1479;SDS011;732;51.698;4.886;2022-07-30T00:40:15;16.23;;;9.60;;
1479;SDS011;732;51.698;4.886;2022-07-30T00:42:44;19.90;;;9.87;;
1479;SDS011;732;51.698;4.886;2022-07-30T00:45:15;16.43;;;9.57;;
1479;SDS011;732;51.698;4.886;2022-07-30T00:47:44;19.90;;;9.97;;
1479;SDS011;732;51.698;4.886;2022-07-30T00:50:14;15.67;;;10.00;;
1479;SDS011;732;51.698;4.886;2022-07-30T00:52:44;21.20;;;9.87;;
1479;SDS011;732;51.698;4.886;2022-07-30T00:55:13;13.30;;;9.30;;
1479;SDS011;732;51.698;4.886;2022-07-30T00:57:42;16.27;;;9.43;;
1479;SDS011;732;51.698;4.886;2022-07-30T01:00:13;16.87;;;9.60;;
1479;SDS011;732;51.698;4.886;2022-07-30T01:02:43;16.70;;;9.47;;
1479;SDS011;732;51.698;4.886;2022-07-30T01:05:12;16.03;;;9.30;;
1479;SDS011;732;51.698;4.886;2022-07-30T01:07:42;14.27;;;8.00;;
1479;SDS011;732;51.698;4.886;2022-07-30T01:10:11;16.90;;;8.40;;
1479;SDS011;732;51.698;4.886;2022-07-30T01:12:42;13.10;;;8.40;;
1479;SDS011;732;51.698;4.886;2022-07-30T01:15:12;15.40;;;8.50;;
1479;SDS011;732;51.698;4.886;2022-07-30T01:17:41;20.50;;;8.77;;
1479;SDS011;732;51.698;4.886;2022-07-30T01:20:20;14.17;;;9.20;;
1479;SDS011;732;51.698;4.886;2022-07-30T01:22:56;17.87;;;8.60;;
1479;SDS011;732;51.698;4.886;2022-07-30T01:25:47;14.77;;;9.70;;
1479;SDS011;732;51.698;4.886;2022-07-30T01:28:23;18.20;;;9.13;;
1479;SDS011;732;51.698;4.886;2022-07-30T01:30:56;14.93;;;8.57;;
1479;SDS011;732;51.698;4.886;2022-07-30T01:33:27;15.30;;;8.47;;
1479;SDS011;732;51.698;4.886;2022-07-30T01:35:58;22.27;;;9.63;;
1479;SDS011;732;51.698;4.886;2022-07-30T01:38:29;16.20;;;9.63;;
1479;SDS011;732;51.698;4.886;2022-07-30T01:41:02;14.80;;;9.20;;
1479;SDS011;732;51.698;4.886;2022-07-30T01:43:33;12.70;;;8.63;;
1479;SDS011;732;51.698;4.886;2022-07-30T01:46:03;18.20;;;8.90;;
1479;SDS011;732;51.698;4.886;2022-07-30T01:48:36;16.40;;;8.57;;
1479;SDS011;732;51.698;4.886;2022-07-30T01:51:09;11.40;;;8.80;;
1479;SDS011;732;51.698;4.886;2022-07-30T01:53:44;11.40;;;8.43;;
1479;SDS011;732;51.698;4.886;2022-07-30T01:56:18;17.37;;;9.10;;
1479;SDS011;732;51.698;4.886;2022-07-30T01:58:51;11.97;;;8.50;;
1479;SDS011;732;51.698;4.886;2022-07-30T02:01:24;17.23;;;8.90;;
1479;SDS011;732;51.698;4.886;2022-07-30T02:03:58;17.30;;;8.97;;
1479;SDS011;732;51.698;4.886;2022-07-30T02:06:30;16.13;;;9.10;;
1479;SDS011;732;51.698;4.886;2022-07-30T02:09:05;14.53;;;9.07;;
1479;SDS011;732;51.698;4.886;2022-07-30T02:11:40;14.43;;;9.67;;
1479;SDS011;732;51.698;4.886;2022-07-30T02:14:29;14.20;;;9.40;;
1479;SDS011;732;51.698;4.886;2022-07-30T02:17:05;16.03;;;9.00;;
1479;SDS011;732;51.698;4.886;2022-07-30T02:19:44;18.97;;;10.40;;
1479;SDS011;732;51.698;4.886;2022-07-30T02:22:21;19.20;;;11.50;;
1479;SDS011;732;51.698;4.886;2022-07-30T02:24:52;14.80;;;11.20;;
1479;SDS011;732;51.698;4.886;2022-07-30T02:27:27;19.17;;;11.30;;
1479;SDS011;732;51.698;4.886;2022-07-30T02:30:04;14.97;;;11.30;;
1479;SDS011;732;51.698;4.886;2022-07-30T02:32:35;18.50;;;11.07;;
1479;SDS011;732;51.698;4.886;2022-07-30T02:35:11;17.10;;;10.87;;
1479;SDS011;732;51.698;4.886;2022-07-30T02:37:43;25.43;;;12.57;;
1479;SDS011;732;51.698;4.886;2022-07-30T02:40:15;19.30;;;13.10;;
1479;SDS011;732;51.698;4.886;2022-07-30T02:42:47;23.27;;;11.70;;
1479;SDS011;732;51.698;4.886;2022-07-30T02:45:22;19.77;;;12.27;;
1479;SDS011;732;51.698;4.886;2022-07-30T02:47:55;21.53;;;12.90;;
1479;SDS011;732;51.698;4.886;2022-07-30T02:50:28;16.67;;;12.43;;
1479;SDS011;732;51.698;4.886;2022-07-30T02:52:58;19.17;;;11.67;;
1479;SDS011;732;51.698;4.886;2022-07-30T02:55:29;18.73;;;12.57;;
1479;SDS011;732;51.698;4.886;2022-07-30T02:58:03;19.80;;;12.47;;
1479;SDS011;732;51.698;4.886;2022-07-30T03:00:33;20.33;;;12.60;;
1479;SDS011;732;51.698;4.886;2022-07-30T03:03:03;21.27;;;11.87;;
1479;SDS011;732;51.698;4.886;2022-07-30T03:05:36;18.70;;;12.27;;
1479;SDS011;732;51.698;4.886;2022-07-30T03:08:06;21.87;;;13.00;;
1479;SDS011;732;51.698;4.886;2022-07-30T03:10:36;24.73;;;13.03;;
1479;SDS011;732;51.698;4.886;2022-07-30T03:13:07;22.80;;;12.67;;
1479;SDS011;732;51.698;4.886;2022-07-30T03:15:40;19.50;;;12.43;;
1479;SDS011;732;51.698;4.886;2022-07-30T03:18:14;22.47;;;12.63;;
1479;SDS011;732;51.698;4.886;2022-07-30T03:20:47;17.17;;;11.93;;
1479;SDS011;732;51.698;4.886;2022-07-30T03:23:21;19.07;;;13.20;;
1479;SDS011;732;51.698;4.886;2022-07-30T03:25:52;16.40;;;12.50;;
1479;SDS011;732;51.698;4.886;2022-07-30T03:28:25;18.13;;;10.33;;
1479;SDS011;732;51.698;4.886;2022-07-30T03:30:58;19.47;;;11.10;;
1479;SDS011;732;51.698;4.886;2022-07-30T03:33:28;18.47;;;10.20;;
1479;SDS011;732;51.698;4.886;2022-07-30T03:36:05;16.73;;;10.53;;
1479;SDS011;732;51.698;4.886;2022-07-30T03:38:35;15.10;;;9.90;;
1479;SDS011;732;51.698;4.886;2022-07-30T03:41:06;19.60;;;10.53;;
1479;SDS011;732;51.698;4.886;2022-07-30T03:43:40;17.00;;;11.43;;
1479;SDS011;732;51.698;4.886;2022-07-30T03:46:09;20.10;;;11.50;;
1479;SDS011;732;51.698;4.886;2022-07-30T03:48:43;16.70;;;12.23;;
1479;SDS011;732;51.698;4.886;2022-07-30T03:51:12;21.00;;;13.53;;
1479;SDS011;732;51.698;4.886;2022-07-30T03:53:42;16.27;;;12.13;;
1479;SDS011;732;51.698;4.886;2022-07-30T03:56:31;20.77;;;12.43;;
1479;SDS011;732;51.698;4.886;2022-07-30T03:59:07;20.43;;;12.70;;
1479;SDS011;732;51.698;4.886;2022-07-30T04:01:38;17.10;;;12.70;;
1479;SDS011;732;51.698;4.886;2022-07-30T04:04:35;21.50;;;12.70;;
1479;SDS011;732;51.698;4.886;2022-07-30T04:07:08;15.43;;;12.27;;
1479;SDS011;732;51.698;4.886;2022-07-30T04:09:37;21.37;;;13.03;;
1479;SDS011;732;51.698;4.886;2022-07-30T04:12:22;20.17;;;13.87;;
1479;SDS011;732;51.698;4.886;2022-07-30T04:14:52;19.13;;;13.40;;
1479;SDS011;732;51.698;4.886;2022-07-30T04:17:23;17.90;;;13.60;;
1479;SDS011;732;51.698;4.886;2022-07-30T04:20:04;25.33;;;13.27;;
1479;SDS011;732;51.698;4.886;2022-07-30T04:22:43;21.80;;;14.43;;
1479;SDS011;732;51.698;4.886;2022-07-30T04:25:13;17.60;;;13.53;;
1479;SDS011;732;51.698;4.886;2022-07-30T04:27:51;20.70;;;14.53;;
1479;SDS011;732;51.698;4.886;2022-07-30T04:30:30;29.40;;;16.03;;
1479;SDS011;732;51.698;4.886;2022-07-30T04:33:00;27.63;;;16.47;;
1479;SDS011;732;51.698;4.886;2022-07-30T04:35:57;24.00;;;16.20;;
1479;SDS011;732;51.698;4.886;2022-07-30T04:38:30;27.63;;;17.07;;
1479;SDS011;732;51.698;4.886;2022-07-30T04:40:59;20.10;;;17.43;;
1479;SDS011;732;51.698;4.886;2022-07-30T04:43:35;24.70;;;19.23;;
1479;SDS011;732;51.698;4.886;2022-07-30T04:46:05;28.83;;;21.37;;
1479;SDS011;732;51.698;4.886;2022-07-30T04:48:33;28.17;;;20.50;;
1479;SDS011;732;51.698;4.886;2022-07-30T04:51:11;29.20;;;20.43;;
1479;SDS011;732;51.698;4.886;2022-07-30T04:53:44;30.07;;;21.53;;
1479;SDS011;732;51.698;4.886;2022-07-30T04:56:17;33.17;;;21.60;;
1479;SDS011;732;51.698;4.886;2022-07-30T04:58:49;33.07;;;22.37;;
1479;SDS011;732;51.698;4.886;2022-07-30T05:01:21;31.70;;;21.90;;
1479;SDS011;732;51.698;4.886;2022-07-30T05:04:06;37.80;;;23.30;;
1479;SDS011;732;51.698;4.886;2022-07-30T05:06:37;37.33;;;23.90;;
1479;SDS011;732;51.698;4.886;2022-07-30T05:09:07;30.43;;;23.10;;
1479;SDS011;732;51.698;4.886;2022-07-30T05:11:37;33.33;;;23.07;;
1479;SDS011;732;51.698;4.886;2022-07-30T05:14:06;28.83;;;22.50;;
1479;SDS011;732;51.698;4.886;2022-07-30T05:16:35;34.97;;;23.67;;
1479;SDS011;732;51.698;4.886;2022-07-30T05:19:04;31.50;;;21.40;;
1479;SDS011;732;51.698;4.886;2022-07-30T05:21:34;31.30;;;21.03;;
1479;SDS011;732;51.698;4.886;2022-07-30T05:24:03;29.67;;;22.40;;
1479;SDS011;732;51.698;4.886;2022-07-30T05:26:36;31.23;;;20.70;;
1479;SDS011;732;51.698;4.886;2022-07-30T05:29:08;34.17;;;20.87;;
1479;SDS011;732;51.698;4.886;2022-07-30T05:31:53;30.13;;;18.50;;
1479;SDS011;732;51.698;4.886;2022-07-30T05:34:28;21.63;;;17.70;;
1479;SDS011;732;51.698;4.886;2022-07-30T05:36:58;22.70;;;18.10;;
1479;SDS011;732;51.698;4.886;2022-07-30T05:39:26;23.37;;;17.43;;
1479;SDS011;732;51.698;4.886;2022-07-30T05:42:21;22.70;;;16.40;;
1479;SDS011;732;51.698;4.886;2022-07-30T05:44:53;22.20;;;16.30;;
1479;SDS011;732;51.698;4.886;2022-07-30T05:47:23;19.60;;;14.50;;
1479;SDS011;732;51.698;4.886;2022-07-30T05:49:53;22.43;;;15.27;;
1479;SDS011;732;51.698;4.886;2022-07-30T05:52:26;18.67;;;13.73;;
1479;SDS011;732;51.698;4.886;2022-07-30T05:55:01;20.17;;;12.00;;
1479;SDS011;732;51.698;4.886;2022-07-30T05:57:49;17.07;;;10.87;;
1479;SDS011;732;51.698;4.886;2022-07-30T06:00:17;12.90;;;9.23;;
1479;SDS011;732;51.698;4.886;2022-07-30T06:02:53;13.00;;;7.80;;
1479;SDS011;732;51.698;4.886;2022-07-30T06:05:22;14.07;;;7.20;;
1479;SDS011;732;51.698;4.886;2022-07-30T06:07:55;8.73;;;6.03;;
1479;SDS011;732;51.698;4.886;2022-07-30T06:10:25;11.10;;;6.00;;
1479;SDS011;732;51.698;4.886;2022-07-30T06:12:54;8.83;;;5.53;;
1479;SDS011;732;51.698;4.886;2022-07-30T06:15:23;12.07;;;5.40;;
1479;SDS011;732;51.698;4.886;2022-07-30T06:17:54;9.00;;;5.33;;
1479;SDS011;732;51.698;4.886;2022-07-30T06:20:40;8.47;;;5.30;;
1479;SDS011;732;51.698;4.886;2022-07-30T06:23:09;6.97;;;4.83;;
1479;SDS011;732;51.698;4.886;2022-07-30T06:26:10;10.13;;;5.17;;
1479;SDS011;732;51.698;4.886;2022-07-30T06:28:39;6.47;;;4.80;;
1479;SDS011;732;51.698;4.886;2022-07-30T06:31:28;6.17;;;4.50;;
1479;SDS011;732;51.698;4.886;2022-07-30T06:33:58;9.20;;;4.93;;
1479;SDS011;732;51.698;4.886;2022-07-30T06:36:32;5.40;;;4.20;;
1479;SDS011;732;51.698;4.886;2022-07-30T06:39:04;8.50;;;4.73;;
1479;SDS011;732;51.698;4.886;2022-07-30T06:41:56;13.13;;;4.53;;
1479;SDS011;732;51.698;4.886;2022-07-30T06:44:28;7.50;;;5.00;;
1479;SDS011;732;51.698;4.886;2022-07-30T06:47:02;7.13;;;4.10;;
1479;SDS011;732;51.698;4.886;2022-07-30T06:49:37;6.93;;;4.00;;
1479;SDS011;732;51.698;4.886;2022-07-30T06:52:08;6.10;;;3.43;;
1479;SDS011;732;51.698;4.886;2022-07-30T06:54:46;4.60;;;3.57;;
1479;SDS011;732;51.698;4.886;2022-07-30T06:57:38;9.80;;;3.43;;
1479;SDS011;732;51.698;4.886;2022-07-30T07:00:19;11.30;;;3.60;;
1479;SDS011;732;51.698;4.886;2022-07-30T07:02:48;7.53;;;2.93;;
1479;SDS011;732;51.698;4.886;2022-07-30T07:05:25;4.53;;;2.80;;
1479;SDS011;732;51.698;4.886;2022-07-30T07:07:55;11.27;;;3.07;;
1479;SDS011;732;51.698;4.886;2022-07-30T07:10:31;6.00;;;3.30;;
1479;SDS011;732;51.698;4.886;2022-07-30T07:13:18;4.60;;;2.80;;
1479;SDS011;732;51.698;4.886;2022-07-30T07:15:46;4.60;;;3.00;;
1479;SDS011;732;51.698;4.886;2022-07-30T07:18:18;7.50;;;3.17;;
1479;SDS011;732;51.698;4.886;2022-07-30T07:20:56;4.70;;;3.20;;
1479;SDS011;732;51.698;4.886;2022-07-30T07:23:24;11.10;;;3.27;;
1479;SDS011;732;51.698;4.886;2022-07-30T07:26:18;11.20;;;3.50;;
1479;SDS011;732;51.698;4.886;2022-07-30T07:28:47;5.30;;;3.10;;
1479;SDS011;732;51.698;4.886;2022-07-30T07:31:15;5.83;;;3.27;;
1479;SDS011;732;51.698;4.886;2022-07-30T07:34:04;11.83;;;3.60;;
1479;SDS011;732;51.698;4.886;2022-07-30T07:36:34;5.90;;;3.10;;
1479;SDS011;732;51.698;4.886;2022-07-30T07:39:03;8.13;;;3.00;;
1479;SDS011;732;51.698;4.886;2022-07-30T07:41:40;6.10;;;2.80;;
1479;SDS011;732;51.698;4.886;2022-07-30T07:44:18;4.70;;;3.00;;
1479;SDS011;732;51.698;4.886;2022-07-30T07:46:47;4.53;;;3.00;;
1479;SDS011;732;51.698;4.886;2022-07-30T07:49:15;4.33;;;3.03;;
1479;SDS011;732;51.698;4.886;2022-07-30T07:51:49;10.80;;;3.30;;
1479;SDS011;732;51.698;4.886;2022-07-30T07:54:19;3.13;;;2.87;;
1479;SDS011;732;51.698;4.886;2022-07-30T07:56:50;7.10;;;2.90;;
1479;SDS011;732;51.698;4.886;2022-07-30T07:59:33;4.37;;;3.07;;
1479;SDS011;732;51.698;4.886;2022-07-30T08:02:23;5.83;;;2.60;;
1479;SDS011;732;51.698;4.886;2022-07-30T08:05:04;4.67;;;2.90;;
1479;SDS011;732;51.698;4.886;2022-07-30T08:07:50;5.40;;;2.70;;
1479;SDS011;732;51.698;4.886;2022-07-30T08:10:37;5.73;;;2.90;;
1479;SDS011;732;51.698;4.886;2022-07-30T08:13:24;7.83;;;2.83;;
1479;SDS011;732;51.698;4.886;2022-07-30T08:16:31;6.20;;;3.00;;
1479;SDS011;732;51.698;4.886;2022-07-30T08:19:08;7.97;;;2.67;;
1479;SDS011;732;51.698;4.886;2022-07-30T08:21:40;4.57;;;2.80;;
1479;SDS011;732;51.698;4.886;2022-07-30T08:24:16;3.10;;;2.80;;
1479;SDS011;732;51.698;4.886;2022-07-30T08:26:45;5.80;;;2.40;;
1479;SDS011;732;51.698;4.886;2022-07-30T08:29:13;8.63;;;2.63;;
1479;SDS011;732;51.698;4.886;2022-07-30T08:31:43;6.40;;;2.80;;
1479;SDS011;732;51.698;4.886;2022-07-30T08:34:12;7.03;;;2.80;;
1479;SDS011;732;51.698;4.886;2022-07-30T08:36:42;3.97;;;2.90;;
1479;SDS011;732;51.698;4.886;2022-07-30T08:39:10;5.63;;;2.33;;
1479;SDS011;732;51.698;4.886;2022-07-30T08:41:41;6.80;;;2.63;;
1479;SDS011;732;51.698;4.886;2022-07-30T08:44:10;6.17;;;2.73;;
1479;SDS011;732;51.698;4.886;2022-07-30T08:46:40;2.57;;;2.00;;
1479;SDS011;732;51.698;4.886;2022-07-30T08:49:45;5.23;;;2.33;;
1479;SDS011;732;51.698;4.886;2022-07-30T08:52:16;4.77;;;2.30;;
1479;SDS011;732;51.698;4.886;2022-07-30T08:54:55;8.47;;;2.93;;
1479;SDS011;732;51.698;4.886;2022-07-30T08:57:25;5.80;;;2.37;;
1479;SDS011;732;51.698;4.886;2022-07-30T08:59:56;3.43;;;2.40;;
1479;SDS011;732;51.698;4.886;2022-07-30T09:02:29;5.33;;;2.23;;
1479;SDS011;732;51.698;4.886;2022-07-30T09:05:01;4.53;;;2.40;;
1479;SDS011;732;51.698;4.886;2022-07-30T09:07:31;3.00;;;2.10;;
1479;SDS011;732;51.698;4.886;2022-07-30T09:10:01;3.30;;;1.80;;
1479;SDS011;732;51.698;4.886;2022-07-30T09:12:34;3.07;;;2.17;;
1479;SDS011;732;51.698;4.886;2022-07-30T09:15:06;3.00;;;1.80;;
1479;SDS011;732;51.698;4.886;2022-07-30T09:17:48;6.30;;;2.40;;
1479;SDS011;732;51.698;4.886;2022-07-30T09:20:25;5.70;;;2.47;;
1479;SDS011;732;51.698;4.886;2022-07-30T09:22:57;3.13;;;2.17;;
1479;SDS011;732;51.698;4.886;2022-07-30T09:25:59;3.70;;;2.40;;
1479;SDS011;732;51.698;4.886;2022-07-30T09:28:40;5.40;;;2.60;;
1479;SDS011;732;51.698;4.886;2022-07-30T09:31:12;4.67;;;2.37;;
1479;SDS011;732;51.698;4.886;2022-07-30T09:34:21;4.87;;;2.10;;
1479;SDS011;732;51.698;4.886;2022-07-30T09:37:03;5.10;;;2.30;;
1479;SDS011;732;51.698;4.886;2022-07-30T09:40:11;5.30;;;2.23;;
1479;SDS011;732;51.698;4.886;2022-07-30T09:43:15;6.87;;;2.60;;
1479;SDS011;732;51.698;4.886;2022-07-30T09:45:50;4.33;;;2.07;;
1479;SDS011;732;51.698;4.886;2022-07-30T09:48:24;3.73;;;2.23;;
1479;SDS011;732;51.698;4.886;2022-07-30T09:50:54;4.00;;;2.40;;
1479;SDS011;732;51.698;4.886;2022-07-30T09:53:23;4.30;;;2.20;;
1479;SDS011;732;51.698;4.886;2022-07-30T09:55:51;5.90;;;2.47;;
1479;SDS011;732;51.698;4.886;2022-07-30T09:58:24;5.50;;;2.53;;
1479;SDS011;732;51.698;4.886;2022-07-30T10:01:12;4.03;;;1.93;;
1479;SDS011;732;51.698;4.886;2022-07-30T10:04:00;5.07;;;2.20;;
1479;SDS011;732;51.698;4.886;2022-07-30T10:06:47;4.67;;;2.30;;
1479;SDS011;732;51.698;4.886;2022-07-30T10:09:36;4.40;;;2.20;;
1479;SDS011;732;51.698;4.886;2022-07-30T10:12:11;5.87;;;2.80;;
1479;SDS011;732;51.698;4.886;2022-07-30T10:14:45;4.63;;;2.30;;
1479;SDS011;732;51.698;4.886;2022-07-30T10:17:18;4.50;;;2.23;;
1479;SDS011;732;51.698;4.886;2022-07-30T10:20:09;4.30;;;2.30;;
1479;SDS011;732;51.698;4.886;2022-07-30T10:22:44;4.17;;;2.40;;
1479;SDS011;732;51.698;4.886;2022-07-30T10:25:34;9.70;;;2.77;;
1479;SDS011;732;51.698;4.886;2022-07-30T10:28:55;7.87;;;2.97;;
1479;SDS011;732;51.698;4.886;2022-07-30T10:31:24;6.23;;;2.47;;
1479;SDS011;732;51.698;4.886;2022-07-30T10:34:15;8.90;;;2.23;;
1479;SDS011;732;51.698;4.886;2022-07-30T10:36:54;6.00;;;2.47;;
1479;SDS011;732;51.698;4.886;2022-07-30T10:39:31;2.83;;;2.53;;
1479;SDS011;732;51.698;4.886;2022-07-30T10:42:10;3.57;;;2.30;;
1479;SDS011;732;51.698;4.886;2022-07-30T10:45:07;6.00;;;2.60;;
1479;SDS011;732;51.698;4.886;2022-07-30T10:47:45;5.30;;;3.00;;
1479;SDS011;732;51.698;4.886;2022-07-30T10:50:16;7.17;;;3.03;;
1479;SDS011;732;51.698;4.886;2022-07-30T10:52:52;4.00;;;2.67;;
1479;SDS011;732;51.698;4.886;2022-07-30T10:55:23;5.40;;;3.43;;
1479;SDS011;732;51.698;4.886;2022-07-30T10:58:05;7.00;;;3.63;;
1479;SDS011;732;51.698;4.886;2022-07-30T11:03:26;11.97;;;3.83;;
1479;SDS011;732;51.698;4.886;2022-07-30T11:06:24;5.07;;;3.20;;
1479;SDS011;732;51.698;4.886;2022-07-30T11:08:54;8.10;;;4.70;;
1479;SDS011;732;51.698;4.886;2022-07-30T11:11:42;6.97;;;3.50;;
1479;SDS011;732;51.698;4.886;2022-07-30T11:20:38;3.87;;;3.50;;
1479;SDS011;732;51.698;4.886;2022-07-30T11:23:10;10.27;;;5.50;;
1479;SDS011;732;51.698;4.886;2022-07-30T11:26:05;7.40;;;4.20;;
1479;SDS011;732;51.698;4.886;2022-07-30T11:28:41;7.37;;;4.50;;
1479;SDS011;732;51.698;4.886;2022-07-30T11:31:28;8.57;;;5.00;;
1479;SDS011;732;51.698;4.886;2022-07-30T11:34:25;6.77;;;3.90;;
1479;SDS011;732;51.698;4.886;2022-07-30T11:37:06;7.27;;;4.70;;
1479;SDS011;732;51.698;4.886;2022-07-30T11:40:11;7.63;;;5.17;;
1479;SDS011;732;51.698;4.886;2022-07-30T11:42:40;5.57;;;4.97;;
1479;SDS011;732;51.698;4.886;2022-07-30T11:45:20;7.73;;;4.40;;
1479;SDS011;732;51.698;4.886;2022-07-30T11:47:58;6.93;;;5.13;;
1479;SDS011;732;51.698;4.886;2022-07-30T11:50:29;6.67;;;5.50;;
1479;SDS011;732;51.698;4.886;2022-07-30T11:53:01;5.03;;;4.20;;
1479;SDS011;732;51.698;4.886;2022-07-30T11:55:33;6.83;;;5.07;;
1479;SDS011;732;51.698;4.886;2022-07-30T11:58:05;6.87;;;4.53;;
1479;SDS011;732;51.698;4.886;2022-07-30T12:00:36;8.23;;;5.37;;
1479;SDS011;732;51.698;4.886;2022-07-30T12:03:08;12.10;;;6.80;;
1479;SDS011;732;51.698;4.886;2022-07-30T12:05:38;9.73;;;4.90;;
1479;SDS011;732;51.698;4.886;2022-07-30T12:08:08;7.63;;;5.30;;
1479;SDS011;732;51.698;4.886;2022-07-30T12:10:59;9.93;;;5.40;;
1479;SDS011;732;51.698;4.886;2022-07-30T12:13:28;6.43;;;5.33;;
1479;SDS011;732;51.698;4.886;2022-07-30T12:16:12;9.47;;;5.00;;
1479;SDS011;732;51.698;4.886;2022-07-30T12:18:43;7.80;;;5.07;;
1479;SDS011;732;51.698;4.886;2022-07-30T12:21:13;6.90;;;5.03;;
1479;SDS011;732;51.698;4.886;2022-07-30T12:23:42;7.87;;;4.73;;
1479;SDS011;732;51.698;4.886;2022-07-30T12:26:23;7.83;;;4.90;;
1479;SDS011;732;51.698;4.886;2022-07-30T12:28:54;7.97;;;4.40;;
1479;SDS011;732;51.698;4.886;2022-07-30T12:31:24;7.90;;;5.70;;
1479;SDS011;732;51.698;4.886;2022-07-30T12:33:54;9.00;;;5.60;;
1479;SDS011;732;51.698;4.886;2022-07-30T12:36:25;8.63;;;5.47;;
1479;SDS011;732;51.698;4.886;2022-07-30T12:38:57;9.00;;;3.83;;
1479;SDS011;732;51.698;4.886;2022-07-30T12:47:02;6.27;;;4.10;;
1479;SDS011;732;51.698;4.886;2022-07-30T12:49:33;7.47;;;4.13;;
1479;SDS011;732;51.698;4.886;2022-07-30T12:52:23;8.47;;;4.57;;
1479;SDS011;732;51.698;4.886;2022-07-30T12:54:57;5.40;;;3.77;;
1479;SDS011;732;51.698;4.886;2022-07-30T13:00:22;11.53;;;4.30;;
1479;SDS011;732;51.698;4.886;2022-07-30T13:02:52;7.67;;;3.10;;
1479;SDS011;732;51.698;4.886;2022-07-30T13:08:12;8.73;;;3.63;;
1479;SDS011;732;51.698;4.886;2022-07-30T13:10:54;3.67;;;3.30;;
1479;SDS011;732;51.698;4.886;2022-07-30T13:13:26;4.37;;;2.73;;
1479;SDS011;732;51.698;4.886;2022-07-30T13:15:57;9.17;;;3.53;;
1479;SDS011;732;51.698;4.886;2022-07-30T13:18:27;4.70;;;3.47;;
1479;SDS011;732;51.698;4.886;2022-07-30T13:20:57;5.43;;;2.93;;
1479;SDS011;732;51.698;4.886;2022-07-30T13:23:27;7.23;;;2.57;;
1479;SDS011;732;51.698;4.886;2022-07-30T13:25:56;8.90;;;3.43;;
1479;SDS011;732;51.698;4.886;2022-07-30T13:28:24;7.10;;;3.43;;
1479;SDS011;732;51.698;4.886;2022-07-30T13:30:55;4.20;;;3.20;;
1479;SDS011;732;51.698;4.886;2022-07-30T13:33:24;7.87;;;4.10;;
1479;SDS011;732;51.698;4.886;2022-07-30T13:35:52;7.40;;;3.53;;
1479;SDS011;732;51.698;4.886;2022-07-30T13:38:21;5.30;;;3.90;;
1479;SDS011;732;51.698;4.886;2022-07-30T13:40:49;7.67;;;2.70;;
1479;SDS011;732;51.698;4.886;2022-07-30T13:43:18;6.47;;;2.97;;
1479;SDS011;732;51.698;4.886;2022-07-30T13:45:49;10.23;;;3.50;;
1479;SDS011;732;51.698;4.886;2022-07-30T13:48:18;5.87;;;3.10;;
1479;SDS011;732;51.698;4.886;2022-07-30T13:50:47;7.37;;;3.00;;
1479;SDS011;732;51.698;4.886;2022-07-30T13:53:16;7.97;;;2.80;;
1479;SDS011;732;51.698;4.886;2022-07-30T13:55:45;7.23;;;2.57;;
1479;SDS011;732;51.698;4.886;2022-07-30T13:58:13;7.90;;;2.50;;
1479;SDS011;732;51.698;4.886;2022-07-30T14:00:42;4.30;;;2.63;;
1479;SDS011;732;51.698;4.886;2022-07-30T14:03:14;5.93;;;3.20;;
1479;SDS011;732;51.698;4.886;2022-07-30T14:05:42;3.80;;;2.83;;
1479;SDS011;732;51.698;4.886;2022-07-30T14:08:11;5.63;;;2.67;;
1479;SDS011;732;51.698;4.886;2022-07-30T14:10:39;7.13;;;2.80;;
1479;SDS011;732;51.698;4.886;2022-07-30T14:13:09;7.07;;;2.43;;
1479;SDS011;732;51.698;4.886;2022-07-30T14:15:46;5.87;;;2.70;;
1479;SDS011;732;51.698;4.886;2022-07-30T14:18:16;3.33;;;2.30;;
1479;SDS011;732;51.698;4.886;2022-07-30T14:20:44;4.50;;;2.43;;
1479;SDS011;732;51.698;4.886;2022-07-30T14:23:15;7.90;;;2.90;;
1479;SDS011;732;51.698;4.886;2022-07-30T14:25:43;3.30;;;2.27;;
1479;SDS011;732;51.698;4.886;2022-07-30T14:28:12;3.40;;;2.40;;
1479;SDS011;732;51.698;4.886;2022-07-30T14:30:41;4.33;;;2.50;;
1479;SDS011;732;51.698;4.886;2022-07-30T14:33:10;4.30;;;2.60;;
1479;SDS011;732;51.698;4.886;2022-07-30T14:35:39;4.60;;;2.33;;
1479;SDS011;732;51.698;4.886;2022-07-30T14:38:10;3.30;;;2.60;;
1479;SDS011;732;51.698;4.886;2022-07-30T14:40:39;3.50;;;2.67;;
1479;SDS011;732;51.698;4.886;2022-07-30T14:43:07;6.77;;;3.13;;
1479;SDS011;732;51.698;4.886;2022-07-30T14:45:35;3.73;;;2.50;;
1479;SDS011;732;51.698;4.886;2022-07-30T14:48:04;3.70;;;2.67;;
1479;SDS011;732;51.698;4.886;2022-07-30T14:50:33;6.43;;;3.40;;
1479;SDS011;732;51.698;4.886;2022-07-30T14:53:23;8.53;;;3.20;;
1479;SDS011;732;51.698;4.886;2022-07-30T14:55:51;5.00;;;2.80;;
1479;SDS011;732;51.698;4.886;2022-07-30T14:58:19;4.67;;;2.80;;
1479;SDS011;732;51.698;4.886;2022-07-30T15:00:48;6.53;;;2.90;;
1479;SDS011;732;51.698;4.886;2022-07-30T15:03:16;3.10;;;2.77;;
1479;SDS011;732;51.698;4.886;2022-07-30T15:05:47;6.03;;;2.60;;
1479;SDS011;732;51.698;4.886;2022-07-30T15:08:17;3.00;;;2.40;;
1479;SDS011;732;51.698;4.886;2022-07-30T15:10:48;7.10;;;3.17;;
1479;SDS011;732;51.698;4.886;2022-07-30T15:13:17;7.03;;;2.90;;
1479;SDS011;732;51.698;4.886;2022-07-30T15:15:46;5.60;;;2.63;;
1479;SDS011;732;51.698;4.886;2022-07-30T15:18:14;5.43;;;2.90;;
1479;SDS011;732;51.698;4.886;2022-07-30T15:20:43;6.13;;;2.43;;
1479;SDS011;732;51.698;4.886;2022-07-30T15:23:11;6.50;;;3.00;;
1479;SDS011;732;51.698;4.886;2022-07-30T15:25:41;9.67;;;2.80;;
1479;SDS011;732;51.698;4.886;2022-07-30T15:28:12;5.03;;;2.50;;
1479;SDS011;732;51.698;4.886;2022-07-30T15:30:43;5.80;;;3.10;;
1479;SDS011;732;51.698;4.886;2022-07-30T15:33:12;5.20;;;3.30;;
1479;SDS011;732;51.698;4.886;2022-07-30T15:35:40;6.03;;;3.07;;
1479;SDS011;732;51.698;4.886;2022-07-30T15:38:09;8.13;;;3.50;;
1479;SDS011;732;51.698;4.886;2022-07-30T15:40:39;4.53;;;2.90;;
1479;SDS011;732;51.698;4.886;2022-07-30T15:43:08;4.17;;;3.03;;
1479;SDS011;732;51.698;4.886;2022-07-30T15:45:38;6.23;;;3.03;;
1479;SDS011;732;51.698;4.886;2022-07-30T15:48:21;4.00;;;2.50;;
1479;SDS011;732;51.698;4.886;2022-07-30T15:50:53;6.30;;;2.77;;
1479;SDS011;732;51.698;4.886;2022-07-30T15:53:27;7.80;;;3.20;;
1479;SDS011;732;51.698;4.886;2022-07-30T15:55:56;5.00;;;2.90;;
1479;SDS011;732;51.698;4.886;2022-07-30T15:58:25;5.00;;;2.90;;
1479;SDS011;732;51.698;4.886;2022-07-30T16:00:55;4.40;;;3.07;;
1479;SDS011;732;51.698;4.886;2022-07-30T16:03:24;5.87;;;3.10;;
1479;SDS011;732;51.698;4.886;2022-07-30T16:05:52;9.60;;;3.40;;
1479;SDS011;732;51.698;4.886;2022-07-30T16:08:20;29.80;;;8.10;;
1479;SDS011;732;51.698;4.886;2022-07-30T16:10:49;6.13;;;3.13;;
1479;SDS011;732;51.698;4.886;2022-07-30T16:13:18;5.40;;;3.10;;
1479;SDS011;732;51.698;4.886;2022-07-30T16:15:46;13.67;;;4.43;;
1479;SDS011;732;51.698;4.886;2022-07-30T16:18:16;3.77;;;2.70;;
1479;SDS011;732;51.698;4.886;2022-07-30T16:20:45;5.30;;;3.00;;
1479;SDS011;732;51.698;4.886;2022-07-30T16:23:13;6.20;;;3.10;;